Aeroporto :
LOGIN :

Iscrizione | Disclaimer

   EN    FR    IT 

 










Sommario :    VFR   VFR Marginale   IFR   IFR Intensivo   IFR Molto Intensivo
Visibilità : 
Base nubi : 
>= 8 km
>= 3000ft
5 / 8 km
1000 / 3000 ft
1500m / 5 km
500 / 1000 ft
800 / 1500m
200 / 500 ft
< 800m
< 200 ft
Simboli :   Temporali  Nebbia  Neve Forte  Precipitazioni Forti  Vento > 20 kt
SIGMETs :   Varie  Temporali  Ghiacco  Turbolenza  Onda orograficha  Ceneri Vulcaniche







- Altitudine del aeroporto : 5600 ft
- Codice IATA : SMV


LSZS - Samedan

ULTIMO METAR :
  • 160850Z 22004KT 9999 SCT050 M06/M08 Q1012 R03/410195 RMK E

METARs OBSOLETI :
  • 160820Z 21006KT 160V240 9999 FEW029 BKN054 M06/M08 Q1012 R03/92//// RMK D
  • 160750Z VRB02KT 9999 -SN SCT024 OVC039 M08/M09 Q1012 R/SNOCLO RMK C
  • 160720Z VRB02KT 8000 -SN FEW016 OVC037 M08/M10 Q1012 R/SNOCLO RMK B
  • 160650Z VRB01KT 7000 -SN OVC032 M09/M10 Q1012 R/SNOCLO RMK A
  • 160620Z AUTO VRB02KT 3200 -SN BR BKN/// M09/M10 Q1012

TAF TAF LSZS
Valido dal 16 a 09 ore il 16 a 18 ore UTC


160825Z 1609/1618 VRB03KT 9999 SCT020 BKN040 TXM02/1614Z
PROB40
TEMPO 1609/1612 3000 -SN BKN008
ATIS : +41 81 834 93 24
Nessun NOTAM noto per questo aeroporto.
3 SIGMETs conosciuti per la FIR Switzerland (LSAS) :
 
Cancellazione del SIGMET 8 
LSAS SIGMET 9 VALID 160820/160900 LSZH
LSAS SWITZERLAND FIR CNL SIGMET 8 160700/160900=
forte formazione di ghiaccio e pioggia congelantesi
LSAS SIGMET 11 VALID 160900/161000 LSZH
LSAS SWITZERLAND FIR SEV ICE (FZRA) OBS WI N4801 E00851 - N4756 E01012 - N4649 E01035 - N4656 E00857 - N4801 E00851 SFC/FL050 MOV E WKN=
forte formazione di ghiaccio e pioggia congelantesi
LSAS SIGMET 10 VALID 160823/160900 LSZH
LSAS SWITZERLAND FIR SEV ICE (FZRA) OBS WI N4756 E01012 - N4653 E01005 - N4659 E00847 - N4755 E00851 - N4756 E01012 SFC/FL050 MOV E WKN=



MetMap, La meteo Aeronautica in un colpo d'occhio ! - Copyright ORBIFLY Dicembre 2007 - Disclaimer

ORBIFLY MET'MAP TEAM :

Programmazione e sviluppo : Alexandra Zaïnal
Concezione e sviluppo : Baudouin d'Aumeries
Co-Programmazione e sviluppo : Marc-Olivier Méhu
Supporto tecnico e logistico : Manuel Goepfert
Aiuto per la traduzione : Arnaldo La Scala

Contatto : metmap@orbifly.com




FONTI E CREDITI :

   NOAA